Home   Weather   USA   Mansfield   Past weeks
Flag for USA

Past Weather in Mansfield, Ohio, USA — July 2018

Currently: 48 °F. Clear. (Weather station: Mansfield Lahm Municipal Airport, USA). See more current weather

July 2018 Weather in Mansfield — Graph

°F

High & Low Weather Summary for July 2018

 TemperatureHumidityPressure
High92 °F (Jul 1, 3:52 pm)100% (Jul 3, 4:52 am)30.37 "Hg (Jul 3, 4:52 am)
Low55 °F (Jul 19, 4:52 am)32% (Jul 8, 4:52 pm)29.72 "Hg (Jul 22, 4:52 am)
Average73 °F75%30.05 "Hg
* Reported Jul 1 12:52 am — Jul 31 11:52 pm, Mansfield. Weather by CustomWeather, © 2021

Note: Actual official high and low records may vary slightly from our data, if they occured in-between our weather recording intervals... More about our weather records

Mansfield Weather History for July 1, 2018

Scroll right to see more
 ConditionsComfort  
Time TempWeatherWind HumidityBarometerVisibility
12:52 am
Sun, Jul 1
71 °FClear.5 mph90%30.02 "Hg9 mi
1:52 am71 °FClear.3 mph90%30.03 "Hg8 mi
2:52 am72 °FClear.3 mph84%30.04 "Hg9 mi
3:52 am69 °FClear.7 mph90%30.03 "Hg10 mi
4:52 am72 °FClear.3 mph81%30.04 "Hg10 mi
5:52 am67 °FClear.5 mph97%30.03 "Hg7 mi
6:52 am69 °FSunny.5 mph90%30.03 "Hg8 mi
7:52 am75 °FSunny.3 mph79%30.04 "Hg10 mi
8:52 am81 °FSunny.8 mph67%30.05 "Hg10 mi
9:52 am85 °FSunny.8 mph61%30.04 "Hg10 mi
10:52 am87 °FSunny.5 mph59%30.03 "Hg10 mi
11:52 am89 °FSunny.5 mph53%30.03 "Hg10 mi
12:52 pm90 °FScattered clouds.6 mph48%30.02 "Hg10 mi
1:52 pm89 °FPassing clouds.8 mph55%30.01 "Hg10 mi
2:52 pm91 °FPassing clouds.7 mph50%29.99 "Hg10 mi
3:52 pm92 °FPassing clouds.10 mph49%29.98 "Hg10 mi
4:52 pm92 °FPassing clouds.14 mph51%29.96 "Hg10 mi
5:52 pm90 °FScattered clouds.17 mph54%29.95 "Hg10 mi
6:52 pm89 °FPassing clouds.12 mph55%29.95 "Hg10 mi
7:52 pm88 °FSunny.13 mph59%29.96 "Hg10 mi
8:52 pm85 °FSunny.12 mph65%29.95 "Hg10 mi
9:52 pm81 °FClear.9 mph65%29.96 "Hg10 mi
10:52 pm80 °FClear.15 mph69%29.99 "Hg10 mi
11:52 pm78 °FClear.12 mph74%29.99 "Hg10 mi
Weather by CustomWeather, © 2021

See weather overview